メインページ
METAR-TAF:

METAR-TAF

空港 :

ポワンタピートル, グアドループ

ポワンタピートル国際空港

緯度: 16-16N, 経度: 061-31W, 海抜: 11m

現時点の気象観測

当レポートは31分前の16:00(UTC)に作成
東/南東の風 7kt
気温 29°C
湿度 58%
気圧 1013 hPa
視程10km以上
高度4600ftの雲は散在している

METAR: TFFR 221600Z AUTO 11007KT 9999 SCT046 29/20 Q1013 NOSIG

時間: 12:31 (16:31 UTC)

予報

当レポートは5時間31分前の11:00(UTC)に作成
予報は22日の 12時(UTC)から 23日の 12時(UTC)まで有効
東/南東の風 5kt
視程10km以上
高度3000ftの雲は散在している
22日の 22時(UTC)から 22日の 24時(UTC)まで徐々に
変向風 3kt
22日の 18時(UTC)から 23日の 12時(UTC)まで一時的に
視程: 4000m
高度1500ftの雲は散在している, 塔状積雲.
にわか雨

TAF: TFFR 221100Z 2212/2312 12005KT 9999 SCT030 BECMG 2222/2224 VRB03KT TEMPO 2218/2312 4000 SHRA SCT015TCU

4,000以上の空港の気象観測と天気予報(METAR報とTAF報)

利用可能な観測所は地図上に黄色い丸と赤い丸で示す。

丸の上にカーソルを重ねると観測所名を参照できる。

次にクリックすると気象観測と天気予報を参照できる。

マップの切り替え:黒色「×」印の緑ボタンをクリックして拡大、「-」印の緑ボタンをクリックして縮小、緑色の三角印をクリックして隣りの地図に切り替え


METAR-TAF: